Time;durP1;ratioP1;P1;durP2;ratioP2;P2;SDS_P1;SDS_P2;PMS_P1;PMS_P2;Temp;Humidity;BMP_temperature;BMP_pressure;BME280_temperature;BME280_humidity;BME280_pressure;Samples;Min_cycle;Max_cycle;Signal;HPM_P1;HPM_P2
2021/10/26 00:00:47;;;;;;;;;;;;;;;27.88;61.89;100792.94;5022005;28;70948;-36
2021/10/26 00:03:18;;;;;;;;;;;;;;;27.92;62.75;100799.59;5027171;28;66577;-36
2021/10/26 00:05:48;;;;;;;;;;;;;;;27.96;63.28;100797.31;5027228;28;69431;-36
2021/10/26 00:08:19;;;;;;;;;;;;;;;28.00;64.27;100803.97;5003961;28;65606;-35
2021/10/26 00:10:52;;;;;;;;;;;;;;;28.04;65.04;100805.25;5015518;28;69857;-36
2021/10/26 00:13:23;;;;;;;;;;;;;;;28.10;65.04;100817.06;5028954;28;66189;-36
2021/10/26 00:15:54;;;;;;;;;;;;;;;28.14;65.76;100811.09;5024314;28;70550;-36
2021/10/26 00:18:24;;;;;;;;;;;;;;;28.17;65.54;100809.84;5017435;28;65579;-37
2021/10/26 00:20:55;;;;;;;;;;;;;;;28.17;65.92;100815.25;5029481;28;70319;-38
2021/10/26 00:23:26;;;;;;;;;;;;;;;28.04;65.36;100816.84;5022948;28;66528;-36
2021/10/26 00:25:56;;;;;;;;;;;;;;;27.93;65.26;100820.13;5016232;28;69093;-37
2021/10/26 00:28:27;;;;;;;;;;;;;;;27.93;65.73;100820.13;5017487;28;66769;-37
2021/10/26 00:30:58;;;;;;;;;;;;;;;27.96;63.79;100824.28;5017543;28;69328;-37
2021/10/26 00:33:29;;;;;;;;;;;;;;;28.00;63.27;100831.78;5023983;28;65987;-36
2021/10/26 00:36:00;;;;;;;;;;;;;;;28.05;63.44;100829.31;5019896;28;69822;-36
2021/10/26 00:38:32;;;;;;;;;;;;;;;28.10;63.13;100836.78;5025890;28;66240;-37
2021/10/26 00:41:05;;;;;;;;;;;;;;;28.14;62.72;100834.50;5003660;28;70316;-37
2021/10/26 00:43:39;;;;;;;;;;;;;;;28.17;62.94;100842.22;5022652;28;66611;-37
2021/10/26 00:46:12;;;;;;;;;;;;;;;28.19;62.25;100850.91;5022345;28;69866;-38
2021/10/26 00:48:44;;;;;;;;;;;;;;;28.21;62.38;100854.25;5006851;28;66721;-36
2021/10/26 00:51:18;;;;;;;;;;;;;;;28.24;62.46;100862.75;5019096;28;69746;-36
2021/10/26 00:53:50;;;;;;;;;;;;;;;28.26;62.04;100862.56;5014927;28;66169;-36
2021/10/26 00:56:22;;;;;;;;;;;;;;;28.29;62.09;100867.56;4987614;28;69431;-36
2021/10/26 00:58:57;;;;;;;;;;;;;;;28.31;62.02;100875.47;5025523;28;66369;-37
2021/10/26 01:01:30;;;;;;;;;;;;;;;28.33;62.07;100884.97;4999793;28;69843;-37
2021/10/26 01:04:02;;;;;;;;;;;;;;;28.34;61.81;100881.25;5022990;28;66299;-38
2021/10/26 01:06:35;;;;;;;;;;;;;;;28.36;61.79;100887.31;5002737;28;70022;-37
2021/10/26 01:09:11;;;;;;;;;;;;;;;28.38;61.45;100884.38;5004126;28;65442;-37
2021/10/26 01:11:44;;;;;;;;;;;;;;;28.39;61.65;100894.13;5019356;28;70368;-37
2021/10/26 01:14:16;;;;;;;;;;;;;;;28.41;61.54;100897.47;5019442;28;65857;-36
2021/10/26 01:16:48;;;;;;;;;;;;;;;28.41;61.63;100903.69;5000113;28;69440;-37
2021/10/26 01:19:22;;;;;;;;;;;;;;;28.43;61.30;100906.22;5012577;28;66549;-37
2021/10/26 01:22:01;;;;;;;;;;;;;;;28.44;61.54;100908.69;5006743;28;69895;-35
2021/10/26 01:24:33;;;;;;;;;;;;;;;28.47;61.51;100918.25;5014531;28;65032;-37
2021/10/26 01:27:05;;;;;;;;;;;;;;;28.47;61.25;100908.31;5014552;28;70521;-37
2021/10/26 01:29:40;;;;;;;;;;;;;;;28.49;61.57;100914.31;5019577;28;66227;-36
2021/10/26 01:32:15;;;;;;;;;;;;;;;28.50;61.38;100902.50;4999626;28;69418;-37
2021/10/26 01:34:53;;;;;;;;;;;;;;;28.52;61.16;100915.78;4977990;28;65117;-37
2021/10/26 01:37:26;;;;;;;;;;;;;;;28.54;61.15;100907.50;5009773;28;69049;-37
2021/10/26 01:39:58;;;;;;;;;;;;;;;28.54;61.43;100912.91;5013744;28;66605;-37
2021/10/26 01:42:39;;;;;;;;;;;;;;;28.57;61.42;100915.19;5014142;28;69990;-37
2021/10/26 01:45:14;;;;;;;;;;;;;;;28.59;61.26;100910.44;5007750;28;66564;-37
2021/10/26 01:47:50;;;;;;;;;;;;;;;28.60;61.20;100906.69;5011612;28;70946;-36
2021/10/26 01:50:22;;;;;;;;;;;;;;;28.62;61.47;100904.63;4993689;28;63990;-37
2021/10/26 01:52:54;;;;;;;;;;;;;;;28.64;61.03;100907.91;5013971;28;70131;-36
2021/10/26 01:55:31;;;;;;;;;;;;;;;28.65;61.00;100917.69;4999663;28;66408;-37
2021/10/26 01:58:08;;;;;;;;;;;;;;;28.67;61.27;100918.34;5009579;28;70168;-39
2021/10/26 02:01:21;;;;;;;;;;;;;;;28.67;61.31;100913.75;4974745;28;66711;-36
2021/10/26 02:03:58;;;;;;;;;;;;;;;28.69;61.26;100916.25;4990438;28;69120;-37
2021/10/26 02:06:35;;;;;;;;;;;;;;;28.71;61.29;100919.56;5011929;28;65754;-37
2021/10/26 02:09:10;;;;;;;;;;;;;;;28.74;60.96;100924.56;4984819;28;70140;-36
2021/10/26 02:11:44;;;;;;;;;;;;;;;28.76;61.25;100927.91;4993235;28;66786;-37
2021/10/26 02:14:21;;;;;;;;;;;;;;;28.78;60.94;100930.38;5015406;28;69877;-37
2021/10/26 02:16:55;;;;;;;;;;;;;;;28.79;60.90;100927.47;5004937;28;66087;-37
2021/10/26 02:19:27;;;;;;;;;;;;;;;28.81;60.79;100924.59;5005043;28;70552;-37
2021/10/26 02:22:04;;;;;;;;;;;;;;;28.83;60.74;100930.59;5009424;28;66967;-35
2021/10/26 02:24:37;;;;;;;;;;;;;;;28.85;61.01;100929.34;5008722;28;70049;-36
2021/10/26 02:27:14;;;;;;;;;;;;;;;28.87;61.18;100930.00;5015067;28;65614;-36
2021/10/26 02:29:53;;;;;;;;;;;;;;;28.90;61.09;100928.75;5013147;28;70291;-36
2021/10/26 02:32:25;;;;;;;;;;;;;;;28.91;60.81;100920.44;5015286;28;66391;-36
2021/10/26 02:35:01;;;;;;;;;;;;;;;28.94;60.65;100924.59;4997929;28;69463;-38
2021/10/26 02:37:34;;;;;;;;;;;;;;;28.94;60.62;100917.31;4994630;28;66772;-35
2021/10/26 02:40:12;;;;;;;;;;;;;;;28.98;60.90;100914.22;5012391;28;69442;-36
2021/10/26 02:42:46;;;;;;;;;;;;;;;29.00;61.02;100912.94;4996694;28;64690;-36
2021/10/26 02:45:19;;;;;;;;;;;;;;;29.03;60.59;100906.31;5018275;28;70227;-36
2021/10/26 02:47:52;;;;;;;;;;;;;;;29.04;61.06;100913.44;5014987;28;66696;-36
2021/10/26 02:50:24;;;;;;;;;;;;;;;29.06;60.96;100906.78;4995566;28;69811;-36
2021/10/26 02:52:56;;;;;;;;;;;;;;;29.10;60.83;100901.78;4982895;28;66332;-36
2021/10/26 02:55:28;;;;;;;;;;;;;;;29.12;60.55;100905.13;5029261;28;69934;-36
2021/10/26 02:58:01;;;;;;;;;;;;;;;29.14;60.93;100908.41;5008796;28;66353;-36
2021/10/26 03:00:34;;;;;;;;;;;;;;;29.16;60.42;100906.34;4981193;28;69231;-37
2021/10/26 03:03:13;;;;;;;;;;;;;;;29.18;60.85;100893.47;5017247;28;66979;-37
2021/10/26 03:05:47;;;;;;;;;;;;;;;29.22;60.48;100904.69;5002270;28;69765;-36
2021/10/26 03:08:19;;;;;;;;;;;;;;;29.24;60.92;100903.44;5005785;28;67394;-36
2021/10/26 03:10:53;;;;;;;;;;;;;;;29.26;60.88;100895.97;5012046;28;70440;-36
2021/10/26 03:13:25;;;;;;;;;;;;;;;29.28;60.47;100893.03;5004181;28;66568;-42
2021/10/26 03:16:01;;;;;;;;;;;;;;;29.30;60.39;100899.91;5015017;28;69123;-35
2021/10/26 03:18:34;;;;;;;;;;;;;;;29.32;60.88;100894.28;4997327;28;66277;-37
2021/10/26 03:21:08;;;;;;;;;;;;;;;29.35;60.22;100900.09;5015136;28;70682;-37
2021/10/26 03:23:40;;;;;;;;;;;;;;;29.38;60.80;100899.69;4995873;28;67194;-37
2021/10/26 03:26:12;;;;;;;;;;;;;;;29.42;60.83;100885.75;5014400;28;70084;-37
2021/10/26 03:28:44;;;;;;;;;;;;;;;29.44;60.73;100875.56;5005602;28;66339;-36
2021/10/26 03:31:16;;;;;;;;;;;;;;;29.46;60.29;100874.31;5009946;28;70419;-36
2021/10/26 03:34:11;;;;;;;;;;;;;;;29.49;60.78;100871.19;4989668;28;65518;-36
2021/10/26 03:36:42;;;;;;;;;;;;;;;29.52;60.58;100867.22;5006323;28;70071;-36
2021/10/26 03:39:13;;;;;;;;;;;;;;;29.54;60.65;100860.56;5013572;28;66703;-35
2021/10/26 03:41:44;;;;;;;;;;;;;;;29.57;60.21;100859.31;5010532;28;69068;-37
2021/10/26 03:44:16;;;;;;;;;;;;;;;29.60;60.65;100853.50;4995148;28;66567;-36
2021/10/26 03:46:47;;;;;;;;;;;;;;;29.62;60.14;100854.94;5021821;28;70321;-36
2021/10/26 03:49:22;;;;;;;;;;;;;;;29.66;60.62;100851.84;5010970;28;66590;-37
2021/10/26 03:51:54;;;;;;;;;;;;;;;29.69;60.44;100841.44;5012165;28;69745;-36
2021/10/26 03:54:24;;;;;;;;;;;;;;;29.71;60.32;100838.53;5014667;28;66625;-36
2021/10/26 03:56:55;;;;;;;;;;;;;;;29.73;60.38;100831.88;5011212;28;70764;-36
2021/10/26 03:59:30;;;;;;;;;;;;;;;29.76;60.35;100828.72;5013238;28;65572;-37
2021/10/26 04:02:20;;;;;;;;;;;;;;;29.78;60.25;100817.69;5009365;28;70406;-37
2021/10/26 04:04:55;;;;;;;;;;;;;;;29.82;59.78;100814.34;5025496;28;66249;-36
2021/10/26 04:07:26;;;;;;;;;;;;;;;29.87;60.33;100821.00;4999995;28;69977;-36
2021/10/26 04:10:12;;;;;;;;;;;;;;;29.89;60.21;100813.47;4993028;28;65534;-37
2021/10/26 04:12:43;;;;;;;;;;;;;;;29.92;59.79;100813.91;5018579;28;69155;-36
2021/10/26 04:15:14;;;;;;;;;;;;;;;29.96;59.66;100814.28;4986080;28;65422;-37
2021/10/26 04:17:45;;;;;;;;;;;;;;;29.98;60.17;100806.81;5010727;28;69274;-35
2021/10/26 04:20:15;;;;;;;;;;;;;;;30.00;59.55;100805.50;5011653;28;66483;-36
2021/10/26 04:22:46;;;;;;;;;;;;;;;30.02;59.58;100787.19;5020642;28;70398;-36
2021/10/26 04:25:17;;;;;;;;;;;;;;;30.06;59.37;100783.03;5013467;28;65727;-36
2021/10/26 04:27:48;;;;;;;;;;;;;;;30.09;59.66;100780.91;5011463;28;70373;-36
2021/10/26 04:30:19;;;;;;;;;;;;;;;30.11;59.40;100782.34;4996951;28;66514;-36
2021/10/26 04:32:50;;;;;;;;;;;;;;;30.14;59.36;100778.38;5021427;28;70114;-36
2021/10/26 04:35:23;;;;;;;;;;;;;;;30.16;59.48;100773.59;5006161;28;66928;-36
2021/10/26 04:37:53;;;;;;;;;;;;;;;30.18;59.52;100775.03;5012141;28;69854;-36
2021/10/26 04:40:25;;;;;;;;;;;;;;;30.20;59.88;100767.53;5006829;28;66761;-36
2021/10/26 04:43:01;;;;;;;;;;;;;;;30.22;59.56;100760.03;5013241;28;70364;-36
2021/10/26 04:45:32;;;;;;;;;;;;;;;30.25;59.53;100754.19;5008814;28;66306;-36
2021/10/26 04:48:05;;;;;;;;;;;;;;;30.27;60.08;100741.28;5006594;28;70026;-36
2021/10/26 04:50:37;;;;;;;;;;;;;;;30.30;60.15;100744.59;5012324;28;66303;-36
2021/10/26 04:53:08;;;;;;;;;;;;;;;30.32;59.65;100734.41;5013448;28;70108;-36
2021/10/26 04:55:41;;;;;;;;;;;;;;;30.33;59.66;100734.16;4995797;28;65764;-37
2021/10/26 04:58:13;;;;;;;;;;;;;;;30.36;59.76;100732.91;5011193;28;70531;-36
2021/10/26 05:00:46;;;;;;;;;;;;;;;30.37;59.97;100735.41;5013063;28;66767;-36
2021/10/26 05:03:17;;;;;;;;;;;;;;;30.40;59.99;100728.72;4975183;28;70147;-36
2021/10/26 05:05:47;;;;;;;;;;;;;;;30.43;59.59;100723.69;5008074;28;66684;-36
2021/10/26 05:08:20;;;;;;;;;;;;;;;30.30;60.29;100698.59;5010530;28;69051;-37
2021/10/26 05:10:50;;;;;;;;;;;;;;;30.46;59.65;100711.59;5015513;28;65992;-36
2021/10/26 05:13:21;;;;;;;;;;;;;;;30.48;59.87;100704.91;5014905;28;69937;-36
2021/10/26 05:16:11;;;;;;;;;;;;;;;30.51;59.83;100698.22;5013892;28;65416;-37
2021/10/26 05:19:03;;;;;;;;;;;;;;;30.54;59.67;100702.38;5013134;28;70320;-37
2021/10/26 05:21:52;;;;;;;;;;;;;;;30.56;59.76;100684.00;5014342;28;65763;-37
2021/10/26 05:24:40;;;;;;;;;;;;;;;30.60;59.75;100690.63;5010631;28;70084;-36
2021/10/26 05:27:24;;;;;;;;;;;;;;;30.61;59.42;100689.56;5026978;28;66533;-37
2021/10/26 05:29:56;;;;;;;;;;;;;;;30.64;59.17;100686.41;4995578;28;70793;-37
2021/10/26 05:32:27;;;;;;;;;;;;;;;30.66;59.56;100684.31;5010978;28;66368;-37
2021/10/26 05:34:57;;;;;;;;;;;;;;;30.68;59.73;100683.06;5014797;28;69845;-37
2021/10/26 05:37:28;;;;;;;;;;;;;;;30.70;59.50;100680.97;5015107;28;66564;-37
2021/10/26 05:40:05;;;;;;;;;;;;;;;30.72;59.50;100673.41;5016569;28;70055;-36
2021/10/26 05:42:37;;;;;;;;;;;;;;;30.75;59.61;100676.72;5007256;28;66668;-38
2021/10/26 05:45:11;;;;;;;;;;;;;;;30.76;59.64;100673.81;5013228;28;70211;-37
2021/10/26 05:47:45;;;;;;;;;;;;;;;30.80;59.23;100674.22;5008874;28;65555;-37
2021/10/26 05:50:18;;;;;;;;;;;;;;;30.81;59.66;100659.63;5014789;28;70679;-36
2021/10/26 05:52:49;;;;;;;;;;;;;;;30.82;59.59;100650.47;5010136;28;66602;-36
2021/10/26 05:55:22;;;;;;;;;;;;;;;30.86;59.45;100640.81;5014652;28;69483;-36
2021/10/26 05:57:56;;;;;;;;;;;;;;;30.88;59.94;100644.13;5011573;28;66717;-37
2021/10/26 06:00:31;;;;;;;;;;;;;;;30.90;59.99;100636.63;5016082;28;70889;-36
2021/10/26 06:03:03;;;;;;;;;;;;;;;30.92;59.47;100637.19;4990918;28;66436;-38
2021/10/26 06:05:39;;;;;;;;;;;;;;;30.95;59.10;100628.59;4989840;28;69978;-40
2021/10/26 06:08:13;;;;;;;;;;;;;;;30.97;59.55;100637.34;4990690;28;66119;-37
2021/10/26 06:10:52;;;;;;;;;;;;;;;30.99;60.14;100626.31;5011333;28;69673;-36
2021/10/26 06:13:28;;;;;;;;;;;;;;;31.00;60.02;100626.06;4996622;28;65441;-36
2021/10/26 06:15:59;;;;;;;;;;;;;;;31.02;60.12;100623.94;4969637;28;70227;-36
2021/10/26 06:18:31;;;;;;;;;;;;;;;31.03;59.87;100617.47;5008084;28;66023;-36
2021/10/26 06:21:02;;;;;;;;;;;;;;;31.06;59.42;100614.31;5008877;28;69761;-36
2021/10/26 06:23:34;;;;;;;;;;;;;;;31.08;59.53;100608.66;5012751;28;65712;-36
2021/10/26 06:26:06;;;;;;;;;;;;;;;31.10;59.65;100610.09;5002643;28;69102;-36
2021/10/26 06:28:45;;;;;;;;;;;;;;;31.11;59.54;100605.50;5004529;28;67033;-36
2021/10/26 06:31:17;;;;;;;;;;;;;;;31.13;59.94;100598.81;5006604;28;69264;-36
2021/10/26 06:33:52;;;;;;;;;;;;;;;31.14;59.61;100588.78;4987016;28;65196;-36
2021/10/26 06:36:27;;;;;;;;;;;;;;;31.15;59.02;100588.56;4990944;28;69277;-36
2021/10/26 06:38:58;;;;;;;;;;;;;;;31.19;59.71;100594.34;5005765;28;66043;-36
2021/10/26 06:41:32;;;;;;;;;;;;;;;31.20;59.52;100595.16;5016027;28;70005;-38
2021/10/26 06:44:03;;;;;;;;;;;;;;;31.23;59.80;100589.28;5014070;28;66362;-36
2021/10/26 06:46:44;;;;;;;;;;;;;;;31.24;59.60;100593.66;5008404;28;70900;-36
2021/10/26 06:49:33;;;;;;;;;;;;;;;31.26;58.93;100586.13;5013626;28;66092;-36
2021/10/26 06:52:24;;;;;;;;;;;;;;;31.15;58.52;100563.38;5012425;28;70699;-37
2021/10/26 06:55:22;;;;;;;;;;;;;;;31.31;58.60;100573.53;5014898;28;66990;-36
2021/10/26 06:58:19;;;;;;;;;;;;;;;31.33;58.83;100571.41;4999742;28;70276;-36
2021/10/26 07:01:10;;;;;;;;;;;;;;;31.36;58.64;100559.31;5015491;28;66446;-36
2021/10/26 07:03:59;;;;;;;;;;;;;;;31.37;58.58;100555.53;4999608;28;71098;-36
2021/10/26 07:06:53;;;;;;;;;;;;;;;31.39;58.13;100561.56;4997834;28;67770;-36
2021/10/26 07:09:53;;;;;;;;;;;;;;;31.41;58.23;100566.78;5001289;28;69886;-36
2021/10/26 07:12:34;;;;;;;;;;;;;;;31.42;58.83;100561.09;5000625;28;66718;-36
2021/10/26 07:15:07;;;;;;;;;;;;;;;31.43;58.70;100565.47;5011661;28;70781;-36
2021/10/26 07:17:40;;;;;;;;;;;;;;;31.46;58.39;100559.59;5000997;28;66893;-36
2021/10/26 07:20:13;;;;;;;;;;;;;;;31.48;58.48;100562.91;4956841;28;69229;-37
2021/10/26 07:23:11;;;;;;;;;;;;;;;31.49;58.60;100567.25;5002926;28;67487;-36
2021/10/26 07:26:12;;;;;;;;;;;;;;;31.53;58.46;100564.91;4994919;28;69603;-37
2021/10/26 07:28:44;;;;;;;;;;;;;;;31.54;58.13;100556.56;5004084;28;66002;-37
2021/10/26 07:31:18;;;;;;;;;;;;;;;31.55;58.33;100558.19;5013224;28;70384;-36
2021/10/26 07:33:50;;;;;;;;;;;;;;;31.56;58.16;100565.25;5011272;28;66120;-36
2021/10/26 07:36:41;;;;;;;;;;;;;;;31.56;58.14;100565.25;5013967;28;70313;-36
2021/10/26 07:41:59;;;;;;;;;;;;;;;31.60;57.92;100561.03;5013271;28;70143;-36
2021/10/26 07:44:47;;;;;;;;;;;;;;;31.61;58.18;100559.97;5008357;28;66906;-36
2021/10/26 07:47:27;;;;;;;;;;;;;;;31.61;58.03;100556.44;4994602;28;70428;-36
2021/10/26 07:50:01;;;;;;;;;;;;;;;31.64;58.18;100555.16;4991342;28;65824;-36
2021/10/26 07:52:35;;;;;;;;;;;;;;;31.65;58.08;100554.06;5000751;28;70010;-36
2021/10/26 07:55:20;;;;;;;;;;;;;;;31.67;58.52;100554.69;5006749;28;66241;-36
2021/10/26 07:58:00;;;;;;;;;;;;;;;31.68;57.91;100556.31;4991898;28;70276;-36
2021/10/26 08:00:34;;;;;;;;;;;;;;;31.68;58.20;100551.75;5007309;28;66349;-36
2021/10/26 08:03:34;;;;;;;;;;;;;;;31.68;57.93;100545.47;4999969;28;70373;-36
2021/10/26 08:06:06;;;;;;;;;;;;;;;31.71;57.71;100540.44;5004589;28;66886;-36
2021/10/26 08:08:40;;;;;;;;;;;;;;;31.72;58.15;100541.25;4990499;28;68973;-36
2021/10/26 08:11:17;;;;;;;;;;;;;;;31.74;57.69;100541.84;5008368;28;66392;-36
2021/10/26 08:13:53;;;;;;;;;;;;;;;31.74;57.81;100544.56;4993602;28;70718;-37
2021/10/26 08:16:27;;;;;;;;;;;;;;;31.74;57.77;100545.38;5011348;28;66775;-37
2021/10/26 08:19:00;;;;;;;;;;;;;;;31.75;58.08;100552.44;5008644;28;71800;-37
2021/10/26 08:21:39;;;;;;;;;;;;;;;31.76;57.72;100547.84;5005410;28;66542;-36
2021/10/26 08:24:11;;;;;;;;;;;;;;;31.77;57.91;100554.94;5007047;28;70209;-36
2021/10/26 08:26:45;;;;;;;;;;;;;;;31.77;57.90;100549.50;5002675;28;65338;-36
2021/10/26 08:29:32;;;;;;;;;;;;;;;31.77;57.95;100558.47;5001461;28;70212;-36
2021/10/26 08:32:16;;;;;;;;;;;;;;;31.78;58.00;100551.16;5015155;28;66020;-36
2021/10/26 08:34:52;;;;;;;;;;;;;;;31.79;57.89;100552.81;5000125;28;69658;-37
2021/10/26 08:37:23;;;;;;;;;;;;;;;31.80;58.00;100551.75;5011745;28;66055;-37
2021/10/26 08:40:07;;;;;;;;;;;;;;;31.79;57.69;100544.69;5010621;28;70213;-36
2021/10/26 08:42:39;;;;;;;;;;;;;;;31.80;58.07;100543.63;5014594;28;65280;-36
2021/10/26 08:45:10;;;;;;;;;;;;;;;31.79;58.19;100542.78;5009137;28;70788;-36
2021/10/26 08:47:44;;;;;;;;;;;;;;;31.80;57.97;100544.44;5009558;28;66461;-36
2021/10/26 08:50:36;;;;;;;;;;;;;;;31.81;57.98;100550.69;5013634;28;70262;-36
2021/10/26 08:53:09;;;;;;;;;;;;;;;31.82;57.75;100552.34;5010114;28;66955;-37
2021/10/26 08:56:04;;;;;;;;;;;;;;;31.82;57.76;100547.75;4995851;28;69934;-37
2021/10/26 08:58:56;;;;;;;;;;;;;;;31.81;58.18;100546.06;5012407;28;67094;-37
2021/10/26 09:01:51;;;;;;;;;;;;;;;31.83;57.96;100552.09;5006459;28;70692;-37
2021/10/26 09:04:29;;;;;;;;;;;;;;;31.82;58.12;100552.34;5009586;28;66609;-37
2021/10/26 09:07:04;;;;;;;;;;;;;;;31.83;58.17;100554.00;5016056;28;70628;-37
2021/10/26 09:09:37;;;;;;;;;;;;;;;31.84;58.19;100561.06;5012885;28;66574;-36
2021/10/26 09:18:28;;;;;;;;;;;;;;;31.82;58.18;100563.19;5011434;28;69125;-36
2021/10/26 09:21:25;;;;;;;;;;;;;;;31.82;58.36;100568.63;5006734;28;66320;-36
2021/10/26 09:23:57;;;;;;;;;;;;;;;31.82;58.22;100569.44;5012049;28;70469;-36
2021/10/26 09:26:48;;;;;;;;;;;;;;;31.82;57.94;100568.63;5014182;28;67223;-36
2021/10/26 09:29:39;;;;;;;;;;;;;;;31.82;57.80;100572.16;5011493;28;69948;-36
2021/10/26 09:32:13;;;;;;;;;;;;;;;31.82;58.35;100579.47;5002197;28;67003;-36
2021/10/26 09:34:57;;;;;;;;;;;;;;;31.82;58.38;100574.88;5005039;28;70047;-36
2021/10/26 09:37:35;;;;;;;;;;;;;;;31.82;58.39;100579.47;5013164;28;66651;-36
2021/10/26 09:40:08;;;;;;;;;;;;;;;31.83;58.16;100576.50;5007451;28;69771;-36
2021/10/26 09:42:44;;;;;;;;;;;;;;;31.82;58.23;100576.75;5010411;28;66533;-36
2021/10/26 09:45:27;;;;;;;;;;;;;;;31.82;58.21;100584.91;5009286;28;70137;-36
2021/10/26 09:48:12;;;;;;;;;;;;;;;31.80;58.10;100582.41;5004530;28;66271;-42
2021/10/26 09:50:43;;;;;;;;;;;;;;;31.79;58.49;100588.91;5004955;28;69092;-36
2021/10/26 09:53:15;;;;;;;;;;;;;;;31.80;57.99;100581.59;5006724;28;66803;-36
2021/10/26 09:55:51;;;;;;;;;;;;;;;31.80;58.28;100587.00;5006542;28;70265;-36
2021/10/26 09:58:26;;;;;;;;;;;;;;;31.79;58.13;100590.78;5008875;28;66986;-36
2021/10/26 10:01:05;;;;;;;;;;;;;;;31.78;58.44;100587.22;5006948;28;69877;-36
2021/10/26 10:03:36;;;;;;;;;;;;;;;31.78;58.89;100586.41;5009700;28;66665;-36
2021/10/26 10:06:10;;;;;;;;;;;;;;;31.77;58.39;100592.91;5007282;28;69306;-36
2021/10/26 10:08:42;;;;;;;;;;;;;;;31.76;58.81;100586.66;5006661;28;66430;-36
2021/10/26 10:11:15;;;;;;;;;;;;;;;31.75;58.75;100587.69;5015029;28;69982;-36
2021/10/26 10:13:56;;;;;;;;;;;;;;;31.75;58.92;100587.69;5013545;28;66555;-36
2021/10/26 10:16:27;;;;;;;;;;;;;;;31.75;58.63;100595.84;5013725;28;69552;-36
2021/10/26 10:18:58;;;;;;;;;;;;;;;31.75;58.37;100595.00;5015140;28;65907;-36
2021/10/26 10:21:30;;;;;;;;;;;;;;;31.75;58.59;100603.16;5006179;28;70321;-35
2021/10/26 10:24:01;;;;;;;;;;;;;;;31.74;58.70;100598.78;5010645;28;66477;-36
2021/10/26 10:26:35;;;;;;;;;;;;;;;31.73;58.68;100607.97;5008124;28;70514;-36
2021/10/26 10:29:06;;;;;;;;;;;;;;;31.66;59.01;100601.84;5008234;28;66433;-36
2021/10/26 10:31:38;;;;;;;;;;;;;;;31.45;57.95;100612.13;5005241;28;69186;-36
2021/10/26 10:34:09;;;;;;;;;;;;;;;31.41;57.94;100610.13;5012072;28;66374;-37
2021/10/26 10:36:40;;;;;;;;;;;;;;;31.34;57.10;100607.47;5015905;28;70100;-36
2021/10/26 10:39:12;;;;;;;;;;;;;;;31.29;57.43;100610.88;5013028;28;66042;-36
2021/10/26 10:41:44;;;;;;;;;;;;;;;31.29;57.61;100615.50;5007914;28;69787;-36
2021/10/26 10:44:19;;;;;;;;;;;;;;;31.22;58.47;100606.63;5007155;28;66383;-36
2021/10/26 10:47:00;;;;;;;;;;;;;;;31.19;58.62;100607.06;5014782;28;70193;-36
2021/10/26 10:49:38;;;;;;;;;;;;;;;31.18;58.71;100606.25;5010601;28;65602;-36
2021/10/26 10:52:15;;;;;;;;;;;;;;;31.16;58.64;100609.19;5013040;28;69140;-36
2021/10/26 10:54:50;;;;;;;;;;;;;;;31.16;58.95;100608.34;5011182;28;66714;-37
2021/10/26 10:57:21;;;;;;;;;;;;;;;31.17;58.27;100610.00;5012286;28;70933;-37
2021/10/26 10:59:52;;;;;;;;;;;;;;;31.14;58.66;100600.44;5011504;28;66186;-37
2021/10/26 11:02:27;;;;;;;;;;;;;;;31.02;58.43;100580.59;5012436;28;70458;-37
2021/10/26 11:04:58;;;;;;;;;;;;;;;31.09;59.42;100603.03;5010872;28;65396;-37
2021/10/26 11:07:45;;;;;;;;;;;;;;;31.07;59.54;100610.56;5013729;28;69376;-37
2021/10/26 11:10:16;;;;;;;;;;;;;;;31.07;59.53;100605.13;5013064;28;66876;-37
2021/10/26 11:12:47;;;;;;;;;;;;;;;31.06;59.39;100611.59;5012608;28;71531;-37
2021/10/26 11:15:43;;;;;;;;;;;;;;;30.93;59.32;100579.28;5008963;28;66589;-37
2021/10/26 11:18:34;;;;;;;;;;;;;;;31.03;58.71;100609.34;5014868;28;70611;-37
2021/10/26 11:21:34;;;;;;;;;;;;;;;31.05;59.24;100603.72;5013520;28;67121;-37
2021/10/26 11:24:06;;;;;;;;;;;;;;;31.02;59.24;100602.28;5011505;28;69885;-40
2021/10/26 11:26:42;;;;;;;;;;;;;;;31.01;59.29;100608.75;5012277;28;66370;-38
2021/10/26 11:29:26;;;;;;;;;;;;;;;30.88;58.81;100585.38;5011009;28;69714;-37
2021/10/26 11:31:57;;;;;;;;;;;;;;;31.02;59.39;100615.00;5014528;28;65478;-37
2021/10/26 11:34:32;;;;;;;;;;;;;;;31.01;59.40;100613.34;5012942;28;70306;-37
2021/10/26 11:37:09;;;;;;;;;;;;;;;30.99;59.67;100619.00;5013856;28;65736;-37
2021/10/26 11:39:42;;;;;;;;;;;;;;;30.99;59.30;100618.16;5003413;28;69338;-37
2021/10/26 11:42:17;;;;;;;;;;;;;;;30.95;59.40;100615.06;5013839;28;66669;-38
2021/10/26 11:44:49;;;;;;;;;;;;;;;30.95;60.00;100628.59;5009796;28;69707;-37
2021/10/26 11:47:21;;;;;;;;;;;;;;;30.94;60.10;100616.94;5014762;28;67181;-37
2021/10/26 11:49:58;;;;;;;;;;;;;;;30.92;60.60;100624.50;5013200;28;70088;-36
2021/10/26 11:52:36;;;;;;;;;;;;;;;30.93;60.01;100628.03;5011969;28;66729;-38
2021/10/26 11:55:10;;;;;;;;;;;;;;;30.91;60.62;100627.44;5010967;28;69859;-38
2021/10/26 11:57:41;;;;;;;;;;;;;;;30.90;60.87;100639.31;5003691;28;64862;-38
2021/10/26 12:00:19;;;;;;;;;;;;;;;30.88;60.66;100649.53;5007651;28;69706;-37
2021/10/26 12:02:50;;;;;;;;;;;;;;;30.88;60.80;100649.53;4985540;28;65948;-37
2021/10/26 12:05:22;;;;;;;;;;;;;;;30.86;61.07;100652.47;5007583;28;71219;-37
2021/10/26 12:07:53;;;;;;;;;;;;;;;30.85;61.02;100658.13;5009130;28;66439;-37
2021/10/26 12:10:28;;;;;;;;;;;;;;;30.84;61.64;100664.56;5000798;28;69300;-37
2021/10/26 12:13:07;;;;;;;;;;;;;;;30.82;61.55;100682.94;4994376;28;65542;-38
2021/10/26 12:15:37;;;;;;;;;;;;;;;30.80;62.13;100682.34;5010210;28;69586;-37
2021/10/26 12:18:30;;;;;;;;;;;;;;;30.78;62.13;100685.22;5009530;28;65844;-37
2021/10/26 12:21:12;;;;;;;;;;;;;;;30.78;62.74;100689.81;5008210;28;69955;-37
2021/10/26 12:23:53;;;;;;;;;;;;;;;30.76;62.39;100695.47;4992830;28;66916;-36
2021/10/26 12:26:24;;;;;;;;;;;;;;;30.75;62.69;100698.41;5010236;28;69812;-36
2021/10/26 12:28:56;;;;;;;;;;;;;;;30.73;62.95;100702.16;5016075;28;65866;-37
2021/10/26 12:31:30;;;;;;;;;;;;;;;30.72;62.92;100708.63;5020053;28;70148;-37
2021/10/26 12:34:04;;;;;;;;;;;;;;;30.70;63.18;100708.03;5010612;28;66656;-37
2021/10/26 12:36:35;;;;;;;;;;;;;;;30.69;63.94;100719.91;5006613;28;70358;-37
2021/10/26 12:39:08;;;;;;;;;;;;;;;30.69;63.95;100725.31;5012872;28;66013;-38
2021/10/26 12:41:43;;;;;;;;;;;;;;;30.69;64.44;100733.44;5014925;28;62899;-37
2021/10/26 12:44:23;;;;;;;;;;;;;;;30.68;64.35;100737.19;5012371;28;65934;-36
2021/10/26 12:47:03;;;;;;;;;;;;;;;30.71;64.61;100735.94;5011006;28;70032;-36
2021/10/26 12:49:38;;;;;;;;;;;;;;;30.72;64.62;100743.00;5010238;28;64973;-37
2021/10/26 12:52:15;;;;;;;;;;;;;;;30.72;64.74;100743.81;5010014;28;70314;-36
2021/10/26 12:54:47;;;;;;;;;;;;;;;30.73;65.13;100745.50;5005073;28;66517;-36
2021/10/26 12:57:37;;;;;;;;;;;;;;;30.73;65.36;100744.66;4997803;28;70018;-37
2021/10/26 13:00:19;;;;;;;;;;;;;;;30.72;65.00;100749.22;5001406;28;66406;-36
2021/10/26 13:03:07;;;;;;;;;;;;;;;30.70;65.28;100745.94;5007481;28;69997;-36
2021/10/26 13:05:53;;;;;;;;;;;;;;;30.69;64.87;100744.25;5003540;28;66407;-37
2021/10/26 13:08:29;;;;;;;;;;;;;;;30.69;64.81;100757.81;5008111;28;70042;-36
2021/10/26 13:11:37;;;;;;;;;;;;;;;30.69;65.56;100765.91;5006057;28;66744;-38
2021/10/26 13:14:12;;;;;;;;;;;;;;;30.71;66.12;100753.00;4976731;28;70148;-37
2021/10/26 13:16:49;;;;;;;;;;;;;;;30.71;66.22;100758.41;5009573;28;66515;-38
2021/10/26 13:19:24;;;;;;;;;;;;;;;30.73;66.76;100764.44;5011376;28;69408;-37
2021/10/26 13:22:09;;;;;;;;;;;;;;;30.73;66.52;100767.16;5011224;28;65439;-38
2021/10/26 13:24:44;;;;;;;;;;;;;;;30.60;65.79;100777.28;5000841;28;70278;-37
2021/10/26 13:27:16;;;;;;;;;;;;;;;30.48;64.53;100758.22;5005301;28;64892;-38
2021/10/26 13:29:53;;;;;;;;;;;;;;;30.37;63.67;100767.00;5007971;28;69687;-38